createdAt,value
2023-04-14T00:02:41.820Z,7.69
2023-04-14T00:07:44.833Z,7.67
2023-04-14T00:12:48.771Z,7.66
2023-04-14T00:18:13.279Z,7.69
2023-04-14T00:23:16.206Z,7.63
2023-04-14T00:28:25.972Z,7.62
2023-04-14T00:33:30.361Z,7.65
2023-04-14T00:38:33.264Z,7.59
2023-04-14T00:43:47.269Z,7.56
2023-04-14T00:48:51.512Z,7.57
2023-04-14T00:53:54.778Z,7.51
2023-04-14T00:58:57.636Z,7.49
2023-04-14T01:04:03.501Z,7.47
2023-04-14T01:09:24.249Z,7.48
2023-04-14T01:14:34.514Z,7.50
2023-04-14T01:19:59.407Z,7.47
2023-04-14T01:25:34.997Z,7.43
2023-04-14T01:30:49.332Z,7.41
2023-04-14T01:35:58.245Z,7.43
2023-04-14T01:41:06.722Z,7.40
2023-04-14T01:46:13.725Z,7.42
2023-04-14T01:51:39.764Z,7.25
2023-04-14T01:56:43.413Z,7.06
2023-04-14T02:01:47.448Z,7.25
2023-04-14T02:06:52.562Z,7.32
2023-04-14T02:11:56.935Z,7.30
2023-04-14T02:17:21.926Z,7.30
2023-04-14T02:22:26.290Z,7.14
2023-04-14T02:27:32.881Z,7.19
2023-04-14T02:32:37.197Z,7.17
2023-04-14T02:37:46.643Z,7.04
2023-04-14T02:43:13.635Z,6.91
2023-04-14T02:48:19.788Z,7.04
2023-04-14T02:53:25.794Z,6.86
2023-04-14T02:58:38.848Z,7.00
2023-04-14T03:03:41.886Z,7.03
2023-04-14T03:08:55.378Z,7.03
2023-04-14T03:14:00.655Z,6.99
2023-04-14T03:19:04.977Z,6.96
2023-04-14T03:24:15.628Z,6.96
2023-04-14T03:29:20.997Z,6.86
2023-04-14T03:34:29.603Z,6.78
2023-04-14T03:39:35.611Z,6.68
2023-04-14T03:44:42.997Z,6.75
2023-04-14T03:49:48.105Z,6.77
2023-04-14T03:54:56.462Z,6.78
2023-04-14T04:00:08.532Z,6.73
2023-04-14T04:05:17.659Z,6.76
2023-04-14T04:10:22.583Z,6.76
2023-04-14T04:15:29.141Z,6.73
2023-04-14T04:20:33.233Z,6.68
2023-04-14T04:25:43.238Z,6.71
2023-04-14T04:31:12.180Z,6.68
2023-04-14T04:36:15.650Z,6.73
2023-04-14T04:41:25.858Z,6.75
2023-04-14T04:46:45.664Z,6.75
2023-04-14T04:51:50.729Z,6.67
2023-04-14T04:56:56.536Z,6.60
2023-04-14T05:01:59.596Z,6.72
2023-04-14T05:07:03.673Z,6.74
2023-04-14T05:12:08.043Z,6.63
2023-04-14T05:17:11.096Z,6.73
2023-04-14T05:22:13.955Z,6.80
2023-04-14T05:27:18.393Z,6.85
2023-04-14T05:32:21.649Z,6.94
2023-04-14T05:37:24.847Z,7.03
2023-04-14T05:42:32.613Z,7.10
2023-04-14T05:47:36.062Z,7.15
2023-04-14T05:52:38.976Z,7.08
2023-04-14T05:57:43.209Z,7.15
2023-04-14T06:02:46.548Z,7.19
2023-04-14T06:08:07.875Z,7.38
2023-04-14T06:13:12.185Z,7.52
2023-04-14T06:18:15.324Z,7.58
2023-04-14T06:23:18.180Z,7.60
2023-04-14T06:28:24.172Z,7.73
2023-04-14T06:33:44.714Z,7.93
2023-04-14T06:38:47.642Z,8.48
2023-04-14T06:43:51.926Z,8.81
2023-04-14T06:48:54.975Z,8.62
2023-04-14T06:53:58.101Z,8.36
2023-04-14T06:59:26.092Z,9.19
2023-04-14T07:04:29.052Z,9.51
2023-04-14T07:09:32.155Z,10.51
2023-04-14T07:14:37.971Z,10.90
2023-04-14T07:19:46.163Z,10.89
2023-04-14T07:25:05.525Z,11.03
2023-04-14T07:30:10.499Z,11.67
2023-04-14T07:35:13.911Z,11.43
2023-04-14T07:40:16.981Z,11.30
2023-04-14T07:45:21.145Z,11.53
2023-04-14T07:50:33.817Z,11.64
2023-04-14T07:55:36.651Z,12.02
2023-04-14T08:00:41.026Z,11.85
2023-04-14T08:05:44.080Z,12.24
2023-04-14T08:10:47.042Z,12.18
2023-04-14T08:16:11.821Z,12.03
2023-04-14T08:21:14.661Z,12.20
2023-04-14T08:26:17.538Z,12.30
2023-04-14T08:31:23.763Z,11.92
2023-04-14T08:36:27.172Z,12.06
2023-04-14T08:41:46.618Z,12.60
2023-04-14T08:46:52.674Z,12.12
2023-04-14T08:51:56.176Z,11.70
2023-04-14T08:57:00.047Z,12.73
2023-04-14T09:02:06.496Z,12.06
2023-04-14T09:07:23.890Z,12.27
2023-04-14T09:12:27.546Z,12.74
2023-04-14T09:17:32.503Z,12.92
2023-04-14T09:22:37.167Z,12.75
2023-04-14T09:27:40.418Z,13.14
2023-04-14T09:33:01.700Z,13.10
2023-04-14T09:38:04.613Z,12.65
2023-04-14T09:43:08.598Z,12.86
2023-04-14T09:48:13.867Z,13.50
2023-04-14T09:53:16.788Z,13.20
2023-04-14T09:58:37.154Z,13.06
2023-04-14T10:03:42.671Z,13.82
2023-04-14T10:08:49.145Z,13.40
2023-04-14T10:13:56.325Z,13.58
2023-04-14T10:19:02.257Z,13.26
2023-04-14T10:24:12.821Z,13.58
2023-04-14T10:29:16.099Z,13.52
2023-04-14T10:34:24.263Z,13.90
2023-04-14T10:39:27.586Z,14.32
2023-04-14T10:44:31.574Z,14.93
2023-04-14T10:49:50.757Z,14.72
2023-04-14T10:55:12.149Z,14.45
2023-04-14T11:00:27.162Z,14.26
2023-04-14T11:05:34.602Z,14.61
2023-04-14T11:11:03.696Z,15.16
2023-04-14T11:21:49.796Z,16.00
2023-04-14T11:27:16.050Z,15.96
2023-04-14T11:32:28.853Z,15.76
2023-04-14T11:37:35.511Z,15.56
2023-04-14T11:42:46.751Z,15.74
2023-04-14T11:47:58.860Z,15.07
2023-04-14T11:53:04.103Z,15.96
2023-04-14T11:58:06.987Z,16.24
2023-04-14T12:03:10.076Z,15.55
2023-04-14T12:08:14.706Z,15.14
2023-04-14T12:13:17.948Z,15.31
2023-04-14T12:18:21.578Z,15.34
2023-04-14T12:23:42.325Z,15.61
2023-04-14T12:28:45.405Z,15.72
2023-04-14T12:33:48.377Z,16.16
2023-04-14T12:38:52.548Z,16.37
2023-04-14T12:43:56.070Z,16.62
2023-04-14T12:49:38.124Z,16.98
2023-04-14T12:54:51.899Z,16.92
2023-04-14T12:59:54.921Z,16.85
2023-04-14T13:04:57.966Z,17.11
2023-04-14T13:10:02.749Z,16.91
2023-04-14T13:15:06.855Z,16.70
2023-04-14T13:20:11.365Z,16.13
2023-04-14T13:25:15.782Z,15.71
2023-04-14T13:30:18.912Z,16.21
2023-04-14T13:35:22.992Z,16.85
2023-04-14T13:40:30.440Z,16.70
2023-04-14T13:45:34.031Z,16.64
2023-04-14T13:50:37.257Z,16.36
2023-04-14T13:55:42.501Z,17.03
2023-04-14T14:00:45.410Z,16.76
2023-04-14T14:06:05.344Z,16.54
2023-04-14T14:11:10.568Z,15.77
2023-04-14T14:16:20.216Z,15.47
2023-04-14T14:21:32.537Z,15.30
2023-04-14T14:26:36.924Z,15.39
2023-04-14T14:31:46.119Z,15.65
2023-04-14T14:36:49.040Z,16.36
2023-04-14T14:41:53.783Z,16.09
2023-04-14T14:46:57.395Z,16.08
2023-04-14T14:52:04.613Z,15.68
2023-04-14T14:57:21.532Z,15.99
2023-04-14T15:02:25.571Z,15.92
2023-04-14T15:07:28.723Z,16.12
2023-04-14T15:12:33.223Z,15.83
2023-04-14T15:17:36.488Z,16.15
2023-04-14T15:22:54.892Z,15.91
2023-04-14T15:27:59.172Z,15.82
2023-04-14T15:33:04.878Z,15.79
2023-04-14T15:38:07.906Z,16.42
2023-04-14T15:43:12.774Z,16.42
2023-04-14T15:48:30.869Z,16.06
2023-04-14T15:53:33.978Z,15.82
2023-04-14T15:58:38.367Z,15.85
2023-04-14T16:03:41.686Z,15.66
2023-04-14T16:08:44.721Z,15.90
2023-04-14T16:14:08.957Z,15.28
2023-04-14T16:19:12.498Z,15.26
2023-04-14T16:24:21.451Z,15.07
2023-04-14T16:29:25.665Z,14.50
2023-04-14T16:34:28.658Z,14.42
2023-04-14T16:39:42.875Z,14.51
2023-04-14T16:44:47.013Z,14.21
2023-04-14T16:49:51.527Z,14.18
2023-04-14T16:54:54.613Z,14.17
2023-04-14T16:59:58.934Z,14.37
2023-04-14T17:05:19.331Z,14.36
2023-04-14T17:10:22.400Z,13.89
2023-04-14T17:15:26.679Z,13.60
2023-04-14T17:20:30.403Z,13.91
2023-04-14T17:25:35.747Z,14.40
2023-04-14T17:30:56.811Z,14.88
2023-04-14T17:35:59.601Z,14.74
2023-04-14T17:41:02.975Z,14.53
2023-04-14T17:46:07.396Z,14.81
2023-04-14T17:51:11.586Z,14.61
2023-04-14T17:56:33.083Z,14.35
2023-04-14T18:01:37.410Z,14.01
2023-04-14T18:06:40.493Z,13.85
2023-04-14T18:11:43.364Z,13.78
2023-04-14T18:16:47.834Z,13.69
2023-04-14T18:22:08.461Z,13.47
2023-04-14T18:32:19.814Z,13.50
2023-04-14T18:37:22.728Z,13.37
2023-04-14T18:42:25.736Z,13.32
2023-04-14T18:47:46.069Z,13.26
2023-04-14T18:52:49.209Z,13.16
2023-04-14T18:57:52.390Z,13.02
2023-04-14T19:02:57.482Z,12.76
2023-04-14T19:08:00.959Z,12.58
2023-04-14T19:13:21.267Z,12.45
2023-04-14T19:18:25.841Z,12.39
2023-04-14T19:23:28.668Z,12.24
2023-04-14T19:28:31.571Z,12.17
2023-04-14T19:33:35.731Z,12.27
2023-04-14T19:38:58.984Z,12.31
2023-04-14T19:44:03.921Z,12.22
2023-04-14T19:49:08.310Z,12.22
2023-04-14T19:54:11.158Z,12.19
2023-04-14T19:59:14.103Z,12.27
2023-04-14T20:04:36.491Z,12.71
2023-04-14T20:09:44.719Z,12.75
2023-04-14T20:14:48.561Z,12.82
2023-04-14T20:19:52.836Z,12.91
2023-04-14T20:24:55.750Z,12.81
2023-04-14T20:30:13.544Z,12.54
2023-04-14T20:35:17.961Z,12.92
2023-04-14T20:40:21.139Z,12.70
2023-04-14T20:45:24.027Z,12.93
2023-04-14T20:50:28.492Z,12.85
2023-04-14T20:55:47.990Z,12.88
2023-04-14T21:00:51.376Z,12.76
2023-04-14T21:05:55.896Z,12.73
2023-04-14T21:11:15.963Z,12.62
2023-04-14T21:16:20.088Z,12.68
2023-04-14T21:21:34.981Z,12.75
2023-04-14T21:26:37.906Z,12.62
2023-04-14T21:31:40.869Z,12.64
2023-04-14T21:36:47.110Z,12.44
2023-04-14T21:41:50.030Z,12.25
2023-04-14T21:46:59.930Z,11.57
2023-04-14T21:52:04.085Z,11.64
2023-04-14T21:57:06.888Z,11.52
2023-04-14T22:02:09.827Z,11.58
2023-04-14T22:07:14.082Z,11.31
2023-04-14T22:12:39.743Z,11.25
2023-04-14T22:17:43.422Z,11.36
2023-04-14T22:22:47.620Z,11.26
2023-04-14T22:27:50.429Z,11.04
2023-04-14T22:32:54.421Z,11.15
2023-04-14T22:38:14.011Z,11.00
2023-04-14T22:43:16.846Z,10.87
2023-04-14T22:48:20.907Z,10.95
2023-04-14T22:53:25.164Z,10.86
2023-04-14T22:58:29.398Z,10.91
2023-04-14T23:03:52.589Z,10.98
2023-04-14T23:08:57.078Z,10.99
2023-04-14T23:13:59.928Z,10.80
2023-04-14T23:19:02.932Z,10.59
2023-04-14T23:24:14.269Z,10.63
2023-04-14T23:29:25.757Z,10.60
2023-04-14T23:34:29.481Z,10.75
2023-04-14T23:39:34.786Z,10.59
2023-04-14T23:44:37.602Z,10.51
2023-04-14T23:49:41.070Z,10.39
2023-04-14T23:55:03.781Z,10.41
